Time;durP1;ratioP1;P1;durP2;ratioP2;P2;SDS_P1;SDS_P2;PMS_P1;PMS_P2;Temp;Humidity;BMP_temperature;BMP_pressure;BME280_temperature;BME280_humidity;BME280_pressure;Samples;Min_cycle;Max_cycle;Signal;HPM_P1;HPM_P2
2022/09/06 00:01:48;;;;;;;3.10;1.25;;;15.90;77.50;;;;;;5032749;28;20036;-70
2022/09/06 00:04:14;;;;;;;4.38;1.15;;;15.90;77.40;;;;;;5028779;28;20033;-72
2022/09/06 00:06:41;;;;;;;15.25;1.70;;;15.90;77.20;;;;;;5027320;28;20030;-70
2022/09/06 00:09:07;;;;;;;9.65;3.60;;;15.90;77.30;;;;;;5029988;28;20481;-70
2022/09/06 00:11:33;;;;;;;8.00;1.33;;;15.90;77.50;;;;;;5025102;28;20523;-69
2022/09/06 00:14:00;;;;;;;4.15;1.20;;;15.80;77.40;;;;;;5033683;28;20037;-71
2022/09/06 00:16:26;;;;;;;5.75;1.65;;;15.80;77.30;;;;;;5032164;28;20423;-70
2022/09/06 00:18:54;;;;;;;4.97;1.95;;;15.80;77.40;;;;;;5029269;28;20091;-70
2022/09/06 00:21:31;;;;;;;6.63;1.38;;;15.80;77.40;;;;;;5029844;28;20523;-70
2022/09/06 00:23:58;;;;;;;3.15;1.50;;;15.80;77.50;;;;;;5030929;28;20128;-70
2022/09/06 00:26:24;;;;;;;3.85;1.40;;;15.80;77.50;;;;;;5036242;28;20029;-69
2022/09/06 00:28:51;;;;;;;9.43;3.25;;;15.80;77.50;;;;;;5027953;28;20079;-70
2022/09/06 00:31:23;;;;;;;7.35;1.35;;;15.70;77.60;;;;;;5035163;28;20024;-70
2022/09/06 00:33:50;;;;;;;6.82;1.92;;;15.80;77.70;;;;;;5036393;28;20029;-69
2022/09/06 00:36:18;;;;;;;7.47;1.55;;;15.70;77.60;;;;;;5040101;28;20137;-69
2022/09/06 00:38:45;;;;;;;7.03;1.08;;;15.70;77.60;;;;;;5034219;28;20465;-71
2022/09/06 00:41:13;;;;;;;6.95;1.63;;;15.70;77.80;;;;;;5035463;28;20481;-70
2022/09/06 00:43:41;;;;;;;6.15;2.00;;;15.70;77.80;;;;;;5038990;28;20025;-70
2022/09/06 00:46:11;;;;;;;3.83;1.17;;;15.70;77.90;;;;;;5035750;28;20029;-69
2022/09/06 00:48:38;;;;;;;5.45;1.63;;;15.70;77.90;;;;;;5037043;28;20091;-71
2022/09/06 00:51:10;;;;;;;4.28;1.75;;;15.70;77.90;;;;;;5035882;28;20116;-69
2022/09/06 00:53:36;;;;;;;5.65;2.00;;;15.70;77.80;;;;;;5033341;28;20117;-70
2022/09/06 00:56:03;;;;;;;5.68;1.08;;;15.70;78.00;;;;;;5035386;28;20030;-71
2022/09/06 00:58:30;;;;;;;3.90;2.80;;;15.70;78.10;;;;;;5038348;28;20027;-69
2022/09/06 01:00:56;;;;;;;5.55;1.42;;;15.60;78.10;;;;;;5035425;28;20033;-70
2022/09/06 01:03:24;;;;;;;4.65;1.83;;;15.60;78.40;;;;;;5035459;28;20021;-70
2022/09/06 01:06:42;;;;;;;5.72;1.70;;;15.60;78.50;;;;;;5034945;28;20047;-70
2022/09/06 01:09:31;;;;;;;5.53;1.38;;;15.60;78.50;;;;;;5036086;28;20033;-69
2022/09/06 01:12:15;;;;;;;4.85;1.15;;;15.60;79.00;;;;;;5029455;28;20037;-69
2022/09/06 01:15:01;;;;;;;7.95;1.95;;;15.60;79.60;;;;;;5033733;28;20079;-69
2022/09/06 01:17:42;;;;;;;6.30;1.05;;;15.70;79.70;;;;;;5031145;28;20026;-70
2022/09/06 01:20:31;;;;;;;4.80;1.15;;;15.70;79.40;;;;;;5030278;28;20032;-70
2022/09/06 01:23:10;;;;;;;11.43;1.63;;;15.70;79.10;;;;;;5036474;28;20507;-71
2022/09/06 01:25:54;;;;;;;5.05;1.52;;;15.70;79.00;;;;;;5035059;28;20037;-71
2022/09/06 01:28:32;;;;;;;5.45;1.55;;;15.60;78.70;;;;;;5032339;28;20412;-71
2022/09/06 01:31:13;;;;;;;6.70;1.45;;;15.60;78.60;;;;;;5033506;28;20029;-72
2022/09/06 01:33:47;;;;;;;3.63;1.90;;;15.60;78.50;;;;;;5031647;28;20030;-70
2022/09/06 01:36:19;;;;;;;5.00;1.10;;;15.60;78.50;;;;;;5033642;28;20412;-70
2022/09/06 01:38:46;;;;;;;8.30;1.45;;;15.60;78.50;;;;;;5030332;28;20033;-70
2022/09/06 01:41:12;;;;;;;8.20;1.88;;;15.60;78.50;;;;;;5031402;28;20029;-70
2022/09/06 01:43:42;;;;;;;5.68;1.85;;;15.60;78.60;;;;;;5031450;28;20034;-70
2022/09/06 01:46:30;;;;;;;4.82;1.60;;;15.60;78.60;;;;;;5035949;28;20437;-69
2022/09/06 01:49:31;;;;;;;4.45;1.20;;;15.60;78.50;;;;;;5030944;28;20384;-69
2022/09/06 01:51:57;;;;;;;3.53;1.13;;;15.60;78.40;;;;;;5031429;28;20033;-69
2022/09/06 01:54:32;;;;;;;3.40;1.27;;;15.50;78.30;;;;;;5027626;28;20032;-70
2022/09/06 01:57:21;;;;;;;3.92;2.00;;;15.60;78.40;;;;;;5030108;28;20025;-69
2022/09/06 02:00:08;;;;;;;5.50;1.55;;;15.60;78.30;;;;;;5033112;28;20032;-71
2022/09/06 02:03:29;;;;;;;5.82;1.90;;;15.50;78.40;;;;;;5033995;28;20028;-69
2022/09/06 02:06:05;;;;;;;3.97;2.08;;;15.50;78.40;;;;;;5020047;28;20049;-69
2022/09/06 02:08:40;;;;;;;3.33;1.35;;;15.50;78.60;;;;;;5032150;28;20136;-69
2022/09/06 02:11:08;;;;;;;11.13;1.98;;;15.50;78.70;;;;;;5029197;28;20030;-69
2022/09/06 02:14:08;;;;;;;5.85;2.35;;;15.50;78.90;;;;;;5030818;28;20115;-71
2022/09/06 02:16:38;;;;;;;8.52;2.25;;;15.50;78.80;;;;;;5023228;28;20043;-69
2022/09/06 02:19:19;;;;;;;8.25;3.70;;;15.50;78.80;;;;;;5032346;28;20097;-69
2022/09/06 02:21:46;;;;;;;8.35;1.67;;;15.50;78.80;;;;;;5032887;28;20033;-70
2022/09/06 02:24:22;;;;;;;7.28;1.85;;;15.50;78.80;;;;;;5033578;28;20077;-69
2022/09/06 02:26:49;;;;;;;3.40;1.42;;;15.50;78.80;;;;;;5034288;28;20090;-69
2022/09/06 02:29:17;;;;;;;6.95;1.55;;;15.50;78.80;;;;;;5032001;28;20036;-69
2022/09/06 02:31:53;;;;;;;4.32;1.70;;;15.50;78.60;;;;;;5033263;28;20043;-70
2022/09/06 02:34:21;;;;;;;2.67;0.85;;;15.50;78.50;;;;;;5028444;28;20124;-69
2022/09/06 02:36:48;;;;;;;5.18;1.35;;;15.50;78.50;;;;;;5040625;28;20037;-69
2022/09/06 02:39:15;;;;;;;8.88;2.50;;;15.50;78.50;;;;;;5032629;28;20296;-71
2022/09/06 02:41:43;;;;;;;3.83;2.00;;;15.50;78.50;;;;;;5035666;28;20030;-70
2022/09/06 02:44:09;;;;;;;7.75;3.08;;;15.50;78.50;;;;;;5039810;28;20040;-70
2022/09/06 02:46:36;;;;;;;10.38;3.40;;;15.50;78.60;;;;;;5031209;28;20128;-68
2022/09/06 02:49:02;;;;;;;10.18;2.95;;;15.50;78.70;;;;;;5032312;28;20029;-68
2022/09/06 02:51:29;;;;;;;9.93;2.80;;;15.50;78.90;;;;;;5036825;28;20013;-71
2022/09/06 02:53:56;;;;;;;11.32;2.50;;;15.50;79.00;;;;;;5031971;28;20033;-70
2022/09/06 02:56:22;;;;;;;9.00;1.83;;;15.50;78.90;;;;;;5029936;28;20021;-71
2022/09/06 02:58:49;;;;;;;11.65;2.85;;;15.40;78.80;;;;;;5038046;28;20511;-70
2022/09/06 03:01:15;;;;;;;11.70;2.63;;;15.40;79.10;;;;;;5028888;28;20109;-69
2022/09/06 03:03:42;;;;;;;5.43;1.88;;;15.50;79.70;;;;;;5032397;28;20084;-70
2022/09/06 03:06:08;;;;;;;14.07;3.35;;;15.50;80.00;;;;;;5035068;28;20025;-70
2022/09/06 03:08:35;;;;;;;6.45;2.60;;;15.50;80.20;;;;;;5035512;28;20140;-70
2022/09/06 03:11:02;;;;;;;10.93;2.25;;;15.50;79.70;;;;;;5030549;28;20377;-70
2022/09/06 03:13:29;;;;;;;8.05;2.35;;;15.50;79.20;;;;;;5031667;28;20029;-69
2022/09/06 03:15:58;;;;;;;7.40;1.75;;;15.50;78.90;;;;;;5036583;28;20041;-69
2022/09/06 03:18:26;;;;;;;9.38;2.05;;;15.50;78.80;;;;;;5031083;28;20025;-69
2022/09/06 03:20:54;;;;;;;7.20;2.42;;;15.50;78.60;;;;;;5030880;28;20380;-71
2022/09/06 03:23:23;;;;;;;8.35;1.90;;;15.40;78.50;;;;;;5033212;28;20098;-69
2022/09/06 03:25:50;;;;;;;10.65;4.25;;;15.40;78.50;;;;;;5033012;28;20033;-70
2022/09/06 03:28:17;;;;;;;7.85;1.65;;;15.40;78.50;;;;;;5029396;28;20113;-71
2022/09/06 03:30:45;;;;;;;9.63;3.25;;;15.40;78.50;;;;;;5036058;28;20041;-68
2022/09/06 03:33:12;;;;;;;12.85;3.30;;;15.40;78.50;;;;;;5037384;28;20025;-69
2022/09/06 03:35:38;;;;;;;31.73;18.50;;;15.40;78.70;;;;;;5031832;28;20099;-69
2022/09/06 03:38:05;;;;;;;22.05;13.48;;;15.40;78.60;;;;;;5042806;28;20388;-69
2022/09/06 03:40:34;;;;;;;12.52;7.22;;;15.40;78.40;;;;;;5028839;28;20052;-70
2022/09/06 03:43:01;;;;;;;13.07;5.10;;;15.30;78.40;;;;;;5033801;28;20075;-70
2022/09/06 03:45:27;;;;;;;6.50;2.80;;;15.40;78.40;;;;;;5037169;28;20025;-70
2022/09/06 03:47:53;;;;;;;8.45;3.22;;;15.30;78.40;;;;;;5030803;28;20025;-69
2022/09/06 03:50:20;;;;;;;4.07;2.13;;;15.40;78.50;;;;;;5032484;28;20030;-69
2022/09/06 03:52:46;;;;;;;6.90;2.80;;;15.40;78.60;;;;;;5037061;28;20036;-70
2022/09/06 03:55:13;;;;;;;8.07;2.10;;;15.30;78.60;;;;;;5031874;28;20025;-71
2022/09/06 03:57:39;;;;;;;7.47;2.30;;;15.30;78.70;;;;;;5028499;28;20052;-70
2022/09/06 04:00:06;;;;;;;8.07;2.28;;;15.30;78.70;;;;;;5032364;28;20054;-69
2022/09/06 04:02:33;;;;;;;6.47;1.70;;;15.30;78.80;;;;;;5034460;28;20420;-69
2022/09/06 04:04:59;;;;;;;8.32;2.60;;;15.30;78.70;;;;;;5032017;28;20048;-69
2022/09/06 04:07:26;;;;;;;3.50;1.60;;;15.30;78.70;;;;;;5025472;28;20104;-70
2022/09/06 04:09:52;;;;;;;16.80;3.50;;;15.30;79.00;;;;;;5035323;28;20477;-70
2022/09/06 04:12:19;;;;;;;6.28;4.35;;;15.30;79.40;;;;;;5031721;28;20409;-68
2022/09/06 04:14:45;;;;;;;10.80;6.47;;;15.30;79.90;;;;;;5029841;28;20033;-70
2022/09/06 04:17:13;;;;;;;18.08;11.73;;;15.30;79.80;;;;;;5030161;28;20026;-70
2022/09/06 04:19:40;;;;;;;46.28;30.05;;;15.30;79.90;;;;;;5030311;28;20049;-70
2022/09/06 04:22:06;;;;;;;33.15;19.42;;;15.30;79.80;;;;;;5032373;28;20116;-69
2022/09/06 04:24:32;;;;;;;21.48;12.65;;;15.30;79.70;;;;;;5033639;28;20032;-70
2022/09/06 04:26:59;;;;;;;10.63;6.40;;;15.30;79.60;;;;;;5032044;28;20025;-72
2022/09/06 04:29:25;;;;;;;7.80;3.78;;;15.30;79.60;;;;;;5032252;28;20491;-72
2022/09/06 04:31:52;;;;;;;8.27;2.53;;;15.30;79.50;;;;;;5032173;28;20438;-71
2022/09/06 04:34:18;;;;;;;8.07;2.25;;;15.30;79.50;;;;;;5030032;28;20026;-71
2022/09/06 04:36:45;;;;;;;7.45;2.00;;;15.30;79.60;;;;;;5032454;28;20085;-71
2022/09/06 04:39:11;;;;;;;6.38;2.05;;;15.30;79.50;;;;;;5027481;28;20038;-71
2022/09/06 04:41:38;;;;;;;8.15;2.13;;;15.30;79.70;;;;;;5029451;28;20101;-71
2022/09/06 04:44:04;;;;;;;5.60;1.40;;;15.30;79.70;;;;;;5030440;28;20063;-71
2022/09/06 04:46:31;;;;;;;7.57;3.30;;;15.20;79.60;;;;;;5027308;28;20029;-72
2022/09/06 04:48:58;;;;;;;8.68;1.77;;;15.20;79.70;;;;;;5032337;28;20021;-72
2022/09/06 04:51:24;;;;;;;6.97;1.67;;;15.20;79.80;;;;;;5034196;28;20037;-71
2022/09/06 04:53:52;;;;;;;9.10;1.75;;;15.20;79.80;;;;;;5019164;28;20017;-71
2022/09/06 04:56:21;;;;;;;5.25;1.90;;;15.20;79.80;;;;;;5032560;28;20024;-71
2022/09/06 04:58:48;;;;;;;4.38;1.60;;;15.20;79.90;;;;;;5034353;28;20041;-71
2022/09/06 05:01:15;;;;;;;4.80;1.45;;;15.20;80.00;;;;;;5031210;28;20109;-71
2022/09/06 05:03:42;;;;;;;7.65;1.58;;;15.20;80.10;;;;;;5034668;28;20595;-71
2022/09/06 05:06:12;;;;;;;4.18;1.95;;;15.20;80.10;;;;;;5031402;28;20579;-70
2022/09/06 05:09:18;;;;;;;4.50;1.75;;;15.20;80.20;;;;;;5025543;28;20503;-70
2022/09/06 05:12:24;;;;;;;11.30;2.97;;;15.20;80.20;;;;;;5030842;28;20422;-71
2022/09/06 05:15:30;;;;;;;8.43;1.95;;;15.20;80.20;;;;;;5034410;28;20033;-71
2022/09/06 05:18:43;;;;;;;12.15;2.47;;;15.20;80.10;;;;;;5035880;28;20021;-71
2022/09/06 05:21:49;;;;;;;9.32;3.13;;;15.20;80.10;;;;;;5035833;28;20021;-71
2022/09/06 05:24:55;;;;;;;5.65;3.38;;;15.20;80.70;;;;;;5029242;28;20065;-71
2022/09/06 05:28:01;;;;;;;6.13;2.65;;;15.20;80.10;;;;;;5032414;28;20029;-71
2022/09/06 05:31:07;;;;;;;5.80;2.22;;;15.20;80.20;;;;;;5030593;28;20035;-71
2022/09/06 05:34:13;;;;;;;11.75;2.63;;;15.20;80.30;;;;;;5028328;28;20633;-71
2022/09/06 05:37:19;;;;;;;8.63;1.70;;;15.20;80.30;;;;;;5029463;28;20558;-71
2022/09/06 05:40:26;;;;;;;3.85;1.73;;;15.20;80.50;;;;;;5032647;28;20045;-71
2022/09/06 05:43:32;;;;;;;7.55;2.20;;;15.20;80.60;;;;;;5032697;28;20047;-71
2022/09/06 05:46:38;;;;;;;4.57;1.52;;;15.20;80.60;;;;;;5031422;28;20116;-72
2022/09/06 05:49:45;;;;;;;7.43;2.08;;;15.20;80.60;;;;;;5029883;28;20017;-71
2022/09/06 05:52:51;;;;;;;4.93;1.77;;;15.20;80.50;;;;;;5035913;28;20029;-71
2022/09/06 05:55:57;;;;;;;7.78;2.15;;;15.30;80.60;;;;;;5032696;28;20366;-72
2022/09/06 05:59:04;;;;;;;10.90;3.13;;;15.30;80.70;;;;;;5037146;28;20408;-71
2022/09/06 06:02:10;;;;;;;11.57;2.80;;;15.30;81.00;;;;;;5037201;28;20391;-71
2022/09/06 06:05:16;;;;;;;6.82;2.70;;;15.30;81.30;;;;;;5030611;28;20045;-71
2022/09/06 06:08:22;;;;;;;4.05;2.45;;;15.30;81.40;;;;;;5036909;28;20037;-72
2022/09/06 06:11:29;;;;;;;8.68;2.95;;;15.40;81.50;;;;;;5028902;28;20025;-71
2022/09/06 06:14:35;;;;;;;7.95;2.45;;;15.40;81.50;;;;;;5033267;28;20544;-72
2022/09/06 06:17:42;;;;;;;16.10;3.15;;;15.40;81.60;;;;;;5034095;28;20018;-71
2022/09/06 06:20:48;;;;;;;11.60;3.30;;;15.40;81.80;;;;;;5034185;28;20038;-72
2022/09/06 06:23:54;;;;;;;11.98;4.10;;;15.50;81.80;;;;;;5034290;28;20083;-71
2022/09/06 06:27:00;;;;;;;9.63;2.90;;;15.40;81.50;;;;;;5033949;28;20064;-71
2022/09/06 06:30:06;;;;;;;11.52;4.45;;;15.50;81.30;;;;;;5039365;28;20026;-71
2022/09/06 06:33:12;;;;;;;8.98;3.33;;;15.50;81.10;;;;;;5038805;28;20606;-71
2022/09/06 06:36:20;;;;;;;10.45;3.20;;;15.50;80.80;;;;;;5035863;28;20070;-71
2022/09/06 06:39:26;;;;;;;5.80;2.38;;;15.50;80.50;;;;;;5031531;28;20021;-71
2022/09/06 06:42:32;;;;;;;14.40;3.78;;;15.50;80.20;;;;;;5027778;28;20508;-71
2022/09/06 06:45:38;;;;;;;11.25;3.17;;;15.60;80.00;;;;;;5033945;28;20451;-72
2022/09/06 06:48:05;;;;;;;6.65;2.33;;;15.60;79.90;;;;;;5035879;28;20028;-71
2022/09/06 06:50:31;;;;;;;9.07;2.38;;;15.60;79.60;;;;;;5028036;28;20366;-71
2022/09/06 06:52:58;;;;;;;9.68;3.33;;;15.60;79.20;;;;;;5028197;28;20028;-71
2022/09/06 06:55:24;;;;;;;6.15;2.65;;;15.60;79.00;;;;;;5031458;28;20049;-71
2022/09/06 06:57:51;;;;;;;9.55;2.40;;;15.70;79.10;;;;;;5034722;28;20033;-71
2022/09/06 07:00:17;;;;;;;13.95;3.92;;;15.70;79.20;;;;;;5030761;28;20018;-71
2022/09/06 07:02:44;;;;;;;19.55;3.20;;;15.70;79.00;;;;;;5034962;28;20036;-71
2022/09/06 07:05:10;;;;;;;15.40;4.00;;;15.80;78.90;;;;;;5030843;28;20035;-71
2022/09/06 07:07:37;;;;;;;7.47;2.63;;;15.80;78.50;;;;;;5029938;28;20038;-71
2022/09/06 07:10:04;;;;;;;4.35;2.45;;;15.80;78.90;;;;;;5030180;28;21102;-71
2022/09/06 07:12:30;;;;;;;5.88;2.22;;;15.80;77.90;;;;;;5028699;28;20642;-71
2022/09/06 07:14:57;;;;;;;6.55;2.63;;;15.90;78.50;;;;;;5038368;28;20683;-71
2022/09/06 07:17:23;;;;;;;5.28;1.85;;;15.90;77.50;;;;;;5029079;28;20512;-71
2022/09/06 07:19:50;;;;;;;8.02;1.77;;;15.90;77.10;;;;;;5034826;28;20025;-71
2022/09/06 07:22:16;;;;;;;5.43;1.83;;;15.90;76.50;;;;;;5034329;28;20437;-71
2022/09/06 07:24:42;;;;;;;6.72;2.72;;;15.90;76.10;;;;;;5035462;28;20151;-71
2022/09/06 07:27:09;;;;;;;5.78;2.53;;;16.00;76.10;;;;;;5031587;28;20114;-71
2022/09/06 07:29:35;;;;;;;6.25;1.77;;;16.00;75.90;;;;;;5039228;28;20024;-71
2022/09/06 07:32:02;;;;;;;3.13;1.15;;;16.00;75.50;;;;;;5034878;28;20013;-71
2022/09/06 07:34:28;;;;;;;4.75;1.60;;;16.10;74.70;;;;;;5028217;28;20028;-71
2022/09/06 07:36:55;;;;;;;3.28;1.50;;;16.10;74.00;;;;;;5026589;28;20092;-71
2022/09/06 07:39:22;;;;;;;3.58;1.13;;;16.10;73.00;;;;;;5029920;28;20116;-71
2022/09/06 07:41:48;;;;;;;3.88;1.33;;;16.20;72.20;;;;;;5029495;28;20056;-71
2022/09/06 07:44:15;;;;;;;4.55;1.20;;;16.10;71.70;;;;;;5032588;28;20034;-71
2022/09/06 07:46:41;;;;;;;4.82;1.38;;;16.20;71.00;;;;;;5032452;28;20117;-72
2022/09/06 07:49:08;;;;;;;5.57;1.00;;;16.20;70.70;;;;;;5028134;28;20030;-71
2022/09/06 07:51:34;;;;;;;5.95;1.63;;;16.20;70.40;;;;;;5030485;28;20027;-71
2022/09/06 07:54:01;;;;;;;7.53;1.33;;;16.20;70.00;;;;;;5031951;28;20217;-71
2022/09/06 07:56:27;;;;;;;8.10;1.65;;;16.20;69.20;;;;;;5033929;28;20026;-71
2022/09/06 07:58:54;;;;;;;7.13;1.40;;;16.20;68.20;;;;;;5030952;28;20039;-71
2022/09/06 08:01:34;;;;;;;5.15;0.95;;;16.20;68.20;;;;;;5034692;28;20500;-71
2022/09/06 08:04:14;;;;;;;6.07;1.20;;;16.30;68.30;;;;;;5026826;28;20046;-71
2022/09/06 08:06:47;;;;;;;7.00;0.88;;;16.30;68.30;;;;;;5031968;28;20411;-71
2022/09/06 08:09:13;;;;;;;2.25;0.85;;;16.30;68.00;;;;;;5029697;28;20078;-71
2022/09/06 08:11:40;;;;;;;5.22;1.15;;;16.30;67.50;;;;;;5037881;28;20032;-71
2022/09/06 08:14:07;;;;;;;7.50;1.50;;;16.40;67.30;;;;;;5032465;28;20025;-71
2022/09/06 08:17:14;;;;;;;3.45;1.20;;;16.40;66.50;;;;;;5029969;28;20033;-71
2022/09/06 08:20:20;;;;;;;2.08;1.08;;;16.50;66.30;;;;;;5025524;28;20068;-71
2022/09/06 08:23:28;;;;;;;4.45;1.17;;;16.50;65.90;;;;;;5030115;28;20017;-71
2022/09/06 08:26:35;;;;;;;2.72;0.93;;;16.50;65.50;;;;;;5029494;28;20042;-71
2022/09/06 08:29:41;;;;;;;10.35;1.10;;;16.60;65.90;;;;;;5030765;28;20022;-71
2022/09/06 08:32:47;;;;;;;2.25;1.08;;;16.60;65.40;;;;;;5032566;28;20500;-71
2022/09/06 08:35:33;;;;;;;;;;;16.70;65.60;;;;;;5035456;28;20064;-71
2022/09/06 08:38:39;;;;;;;4.30;1.30;;;16.70;65.20;;;;;;5029799;28;19908;-71
2022/09/06 08:41:45;;;;;;;8.55;1.27;;;16.70;65.00;;;;;;5029594;28;20034;-71
2022/09/06 08:45:11;;;;;;;1.85;0.57;;;16.80;64.90;;;;;;5030906;28;20038;-71
2022/09/06 08:48:17;;;;;;;13.80;1.38;;;16.90;65.20;;;;;;5031686;28;20462;-71
2022/09/06 08:51:06;;;;;;;2.88;1.05;;;17.00;65.50;;;;;;5030823;28;20369;-71
2022/09/06 08:54:12;;;;;;;8.30;2.05;;;17.00;65.70;;;;;;5037575;28;20059;-71
2022/09/06 08:57:07;;;;;;;7.15;1.23;;;17.10;65.80;;;;;;5040450;28;20393;-70
2022/09/06 09:00:13;;;;;;;7.95;2.42;;;17.20;65.80;;;;;;5033614;28;20126;-71
2022/09/06 09:03:06;;;;;;;;;;;17.20;64.90;;;;;;5033862;28;20605;-71
2022/09/06 09:06:12;;;;;;;5.43;2.45;;;17.20;64.60;;;;;;5040488;28;19924;-71
2022/09/06 09:08:57;;;;;;;3.42;1.02;;;17.30;64.50;;;;;;5032970;28;20057;-71
2022/09/06 09:11:43;;;;;;;;;;;17.30;64.40;;;;;;5033568;28;20025;-71
2022/09/06 09:15:02;;;;;;;4.88;1.13;;;17.30;64.60;;;;;;5029357;28;20345;-71
2022/09/06 09:18:08;;;;;;;2.20;1.00;;;17.30;64.50;;;;;;5027821;28;20043;-70
2022/09/06 09:21:15;;;;;;;2.58;0.90;;;17.40;64.60;;;;;;5032269;28;20386;-71
2022/09/06 09:24:23;;;;;;;3.10;0.90;;;17.40;64.40;;;;;;5029820;28;20029;-71
2022/09/06 09:27:31;;;;;;;4.78;1.70;;;17.40;64.00;;;;;;5030684;28;20037;-71
2022/09/06 09:30:01;;;;;;;2.42;0.93;;;17.40;63.60;;;;;;5029903;28;20022;-71
2022/09/06 09:32:35;;;;;;;1.15;0.90;;;17.50;63.60;;;;;;5031156;28;20021;-71
2022/09/06 09:35:20;;;;;;;2.80;0.88;;;17.50;63.30;;;;;;5029956;28;20113;-71
2022/09/06 09:37:55;;;;;;;1.60;0.77;;;17.60;62.80;;;;;;5031203;28;20510;-71
2022/09/06 09:40:25;;;;;;;8.75;1.85;;;17.60;62.80;;;;;;5030419;28;20010;-72
2022/09/06 09:42:54;;;;;;;10.55;1.83;;;17.60;62.70;;;;;;5034437;28;20087;-71
2022/09/06 09:45:26;;;;;;;2.22;1.25;;;17.70;62.70;;;;;;5032173;28;20041;-71
2022/09/06 09:48:35;;;;;;;5.78;1.23;;;17.70;62.60;;;;;;5034503;28;20107;-71
2022/09/06 09:52:02;;;;;;;8.07;1.40;;;17.80;62.90;;;;;;5037996;28;20036;-71
2022/09/06 09:54:54;;;;;;;;;;;17.90;63.10;;;;;;5031382;28;20033;-71
2022/09/06 09:57:31;;;;;;;4.25;0.95;;;18.00;63.20;;;;;;5035528;28;19909;-72
2022/09/06 10:00:02;;;;;;;3.05;1.20;;;18.00;62.70;;;;;;5032925;28;20664;-71
2022/09/06 10:02:38;;;;;;;1.75;0.60;;;18.10;62.30;;;;;;5025367;28;20502;-71
2022/09/06 10:05:14;;;;;;;5.30;0.85;;;18.10;62.00;;;;;;5029969;28;20037;-71
2022/09/06 10:07:54;;;;;;;3.25;1.50;;;18.20;62.20;;;;;;5030874;28;20053;-71
2022/09/06 10:10:27;;;;;;;7.15;2.00;;;18.20;62.40;;;;;;5030612;28;20080;-72
2022/09/06 10:13:12;;;;;;;2.47;0.80;;;18.30;62.20;;;;;;5031484;28;20044;-72
2022/09/06 10:15:40;;;;;;;2.15;1.27;;;18.30;61.50;;;;;;5029960;28;20022;-71
2022/09/06 10:18:35;;;;;;;4.43;1.45;;;18.40;61.60;;;;;;5031599;28;20461;-72
2022/09/06 10:21:06;;;;;;;7.20;0.80;;;18.40;61.20;;;;;;5027362;28;20025;-72
2022/09/06 10:23:53;;;;;;;4.65;0.80;;;18.50;61.40;;;;;;5035886;28;20025;-72
2022/09/06 10:26:23;;;;;;;8.98;1.27;;;18.50;61.40;;;;;;5031946;28;20040;-72
2022/09/06 10:29:15;;;;;;;3.55;1.05;;;18.60;61.40;;;;;;5031063;28;20021;-72
2022/09/06 10:32:06;;;;;;;6.57;1.35;;;18.60;60.70;;;;;;5031704;28;20044;-72
2022/09/06 10:34:58;;;;;;;8.52;1.17;;;18.60;60.80;;;;;;5031240;28;20028;-71
2022/09/06 10:37:40;;;;;;;3.50;1.10;;;18.70;60.60;;;;;;5032773;28;20082;-72
2022/09/06 10:40:16;;;;;;;2.35;0.90;;;18.80;60.40;;;;;;5031265;28;20111;-74
2022/09/06 10:42:53;;;;;;;4.88;1.17;;;18.80;60.50;;;;;;5032608;28;20061;-71
2022/09/06 10:46:00;;;;;;;9.18;1.52;;;18.80;60.10;;;;;;5031005;28;20128;-71
2022/09/06 10:48:41;;;;;;;2.97;0.90;;;18.90;59.80;;;;;;5035021;28;20052;-71
2022/09/06 10:51:28;;;;;;;7.50;2.78;;;19.00;59.40;;;;;;5028194;28;20038;-71
2022/09/06 10:54:05;;;;;;;4.70;0.70;;;19.00;59.30;;;;;;5032237;28;20061;-72
2022/09/06 10:57:03;;;;;;;4.38;0.52;;;19.10;58.90;;;;;;5039526;28;20059;-71
2022/09/06 11:00:22;;;;;;;1.80;0.77;;;19.10;58.60;;;;;;5032141;28;20107;-71
2022/09/06 11:03:29;;;;;;;7.00;0.80;;;19.20;58.10;;;;;;5035360;28;20029;-71
2022/09/06 11:06:38;;;;;;;3.90;0.98;;;19.20;58.20;;;;;;5029324;28;20041;-71
2022/09/06 11:09:51;;;;;;;2.42;1.08;;;19.20;57.90;;;;;;5033502;28;20025;-71
2022/09/06 11:12:43;;;;;;;3.55;1.02;;;19.30;57.60;;;;;;5030116;28;20025;-71
2022/09/06 11:15:45;;;;;;;0.88;0.55;;;19.30;57.70;;;;;;5031675;28;20120;-71
2022/09/06 11:19:00;;;;;;;3.75;0.80;;;19.40;57.60;;;;;;5027824;28;20025;-71
2022/09/06 11:21:34;;;;;;;1.00;0.73;;;19.40;57.50;;;;;;5027714;28;20388;-71
2022/09/06 11:24:29;;;;;;;4.28;1.00;;;19.40;57.30;;;;;;5030249;28;20291;-71
2022/09/06 11:27:05;;;;;;;4.03;0.98;;;19.50;57.30;;;;;;5032793;28;20021;-71
2022/09/06 11:29:44;;;;;;;9.25;2.83;;;19.60;57.10;;;;;;5031664;28;20027;-71
2022/09/06 11:32:47;;;;;;;2.10;0.88;;;19.60;57.80;;;;;;5030721;28;20029;-71
2022/09/06 11:36:03;;;;;;;2.10;0.63;;;19.70;57.10;;;;;;5031745;28;20057;-71
2022/09/06 11:39:13;;;;;;;4.10;1.05;;;19.70;56.40;;;;;;5030903;28;20468;-71
2022/09/06 11:41:41;;;;;;;2.78;0.93;;;19.80;56.20;;;;;;5032186;28;20133;-71
2022/09/06 11:44:31;;;;;;;2.22;1.10;;;19.80;56.10;;;;;;5033520;28;20464;-71
2022/09/06 11:46:59;;;;;;;7.68;1.48;;;19.80;56.00;;;;;;5029465;28;20029;-72
2022/09/06 11:49:36;;;;;;;3.88;1.13;;;19.90;56.00;;;;;;5030784;28;20049;-71
2022/09/06 11:52:41;;;;;;;4.25;1.02;;;19.90;56.80;;;;;;5028597;28;20022;-72
2022/09/06 11:55:20;;;;;;;2.40;1.15;;;20.00;57.00;;;;;;5025432;28;20032;-71
2022/09/06 11:57:52;;;;;;;10.77;1.05;;;20.10;56.90;;;;;;5029145;28;20028;-71
2022/09/06 12:00:23;;;;;;;6.25;1.33;;;20.10;56.80;;;;;;5027341;28;20014;-71
2022/09/06 12:02:52;;;;;;;4.20;0.88;;;20.20;56.50;;;;;;5035610;28;20025;-71
2022/09/06 12:05:30;;;;;;;3.10;0.70;;;20.30;56.00;;;;;;5026910;28;20440;-70
2022/09/06 12:08:18;;;;;;;1.73;1.08;;;20.30;55.70;;;;;;5030628;28;20116;-71
2022/09/06 12:10:55;;;;;;;3.95;0.88;;;20.30;55.10;;;;;;5027858;28;20026;-70
2022/09/06 12:13:39;;;;;;;3.80;1.02;;;20.30;54.80;;;;;;5026070;28;20021;-71
2022/09/06 12:16:07;;;;;;;5.07;1.10;;;20.30;54.90;;;;;;5028406;28;20108;-71
2022/09/06 12:18:46;;;;;;;6.53;2.20;;;20.30;54.80;;;;;;5030246;28;20037;-71
2022/09/06 12:21:54;;;;;;;2.85;1.00;;;20.30;54.60;;;;;;5029733;28;20022;-71
2022/09/06 12:24:45;;;;;;;4.30;1.38;;;20.40;54.50;;;;;;5025334;28;20119;-71
2022/09/06 12:27:15;;;;;;;7.60;1.55;;;20.40;54.70;;;;;;5020303;28;20080;-72
2022/09/06 12:30:29;;;;;;;5.10;1.30;;;20.50;54.70;;;;;;5033803;28;20018;-71
2022/09/06 12:33:01;;;;;;;3.65;1.10;;;20.50;55.20;;;;;;5031027;28;20030;-71
2022/09/06 12:35:30;;;;;;;1.88;1.30;;;20.60;55.30;;;;;;5029058;28;20119;-71
2022/09/06 12:38:01;;;;;;;3.90;1.77;;;20.60;55.10;;;;;;5030259;28;20033;-71
2022/09/06 12:40:39;;;;;;;3.92;1.05;;;20.60;54.40;;;;;;5030738;28;20585;-71
2022/09/06 12:43:13;;;;;;;2.00;1.23;;;20.60;54.20;;;;;;5031329;28;20114;-71
2022/09/06 12:45:53;;;;;;;5.10;1.13;;;20.60;54.20;;;;;;5029027;28;20069;-71
2022/09/06 12:48:32;;;;;;;7.40;0.95;;;20.60;54.20;;;;;;5030818;28;20026;-71
2022/09/06 12:51:18;;;;;;;1.48;0.73;;;20.50;54.10;;;;;;5033252;28;20029;-71
2022/09/06 12:54:06;;;;;;;4.28;1.75;;;20.60;54.70;;;;;;5031792;28;20025;-70
2022/09/06 12:56:33;;;;;;;2.88;0.68;;;20.60;54.70;;;;;;5033106;28;20099;-70
2022/09/06 12:59:26;;;;;;;2.58;0.95;;;20.60;54.70;;;;;;5030767;28;20033;-70
2022/09/06 13:02:05;;;;;;;3.75;1.10;;;20.60;54.70;;;;;;5026274;28;20370;-70
2022/09/06 13:04:38;;;;;;;3.25;1.13;;;20.70;54.40;;;;;;5031077;28;20069;-70
2022/09/06 13:07:08;;;;;;;10.63;1.30;;;20.70;55.10;;;;;;5035440;28;20024;-71
2022/09/06 13:09:36;;;;;;;4.78;1.13;;;20.70;55.10;;;;;;5036094;28;20025;-70
2022/09/06 13:12:08;;;;;;;3.33;0.93;;;20.80;54.90;;;;;;5031503;28;20033;-72
2022/09/06 13:14:35;;;;;;;2.95;1.10;;;20.80;55.30;;;;;;5044225;28;20495;-72
2022/09/06 13:17:02;;;;;;;5.93;1.00;;;20.80;55.20;;;;;;5032710;28;20052;-73
2022/09/06 13:19:36;;;;;;;4.50;1.45;;;20.80;54.80;;;;;;5037286;28;20021;-72
2022/09/06 13:22:06;;;;;;;2.58;0.80;;;20.80;54.60;;;;;;5034460;28;20036;-72
2022/09/06 13:24:35;;;;;;;3.80;1.05;;;20.70;54.20;;;;;;5033301;28;20037;-72
2022/09/06 13:27:32;;;;;;;2.90;1.20;;;20.70;54.00;;;;;;5033036;28;20023;-72
2022/09/06 13:30:08;;;;;;;3.85;1.10;;;20.70;54.10;;;;;;5031603;28;20037;-72
2022/09/06 13:32:36;;;;;;;2.00;0.52;;;20.60;53.90;;;;;;5041156;28;20028;-72
2022/09/06 13:35:03;;;;;;;3.90;1.40;;;20.60;54.00;;;;;;5033048;28;20017;-72
2022/09/06 13:37:38;;;;;;;1.40;0.70;;;20.60;54.30;;;;;;5029980;28;20112;-72
2022/09/06 13:40:40;;;;;;;5.00;0.85;;;20.60;54.00;;;;;;5033082;28;20026;-72
2022/09/06 13:43:11;;;;;;;6.82;1.20;;;20.60;54.10;;;;;;5029800;28;20064;-72
2022/09/06 13:45:38;;;;;;;2.28;0.90;;;20.60;53.70;;;;;;5030119;28;20044;-72
2022/09/06 13:48:05;;;;;;;3.25;1.60;;;20.50;53.80;;;;;;5032645;28;20108;-72
2022/09/06 13:50:33;;;;;;;3.63;0.80;;;20.50;53.70;;;;;;5035361;28;20143;-72
2022/09/06 13:53:00;;;;;;;3.88;1.30;;;20.50;53.80;;;;;;5030039;28;20083;-72